createdAt,value
2022-10-26T00:01:09.003Z,11.40
2022-10-26T00:03:36.817Z,11.40
2022-10-26T00:06:11.863Z,11.50
2022-10-26T00:08:38.919Z,11.60
2022-10-26T00:11:07.193Z,11.60
2022-10-26T00:13:34.866Z,11.60
2022-10-26T00:16:02.597Z,11.70
2022-10-26T00:18:29.526Z,11.70
2022-10-26T00:21:02.622Z,11.80
2022-10-26T00:23:29.463Z,11.90
2022-10-26T00:25:58.613Z,12.10
2022-10-26T00:28:25.631Z,12.00
2022-10-26T00:30:52.702Z,12.00
2022-10-26T00:33:20.087Z,12.00
2022-10-26T00:35:56.403Z,12.00
2022-10-26T00:38:23.299Z,12.00
2022-10-26T00:40:50.583Z,12.10
2022-10-26T00:43:39.176Z,12.10
2022-10-26T00:46:09.729Z,12.10
2022-10-26T00:48:41.033Z,12.20
2022-10-26T00:51:15.730Z,12.30
2022-10-26T00:53:43.383Z,12.20
2022-10-26T00:56:10.367Z,12.20
2022-10-26T00:58:39.037Z,12.30
2022-10-26T01:01:06.039Z,12.20
2022-10-26T01:03:34.765Z,12.20
2022-10-26T01:06:03.609Z,12.20
2022-10-26T01:08:31.114Z,12.30
2022-10-26T01:10:59.253Z,12.30
2022-10-26T01:13:31.013Z,12.30
2022-10-26T01:16:39.479Z,12.40
2022-10-26T01:19:23.985Z,12.30
2022-10-26T01:22:12.140Z,12.30
2022-10-26T01:24:47.985Z,12.20
2022-10-26T01:27:36.195Z,12.20
2022-10-26T01:30:23.198Z,12.40
2022-10-26T01:33:02.349Z,12.50
2022-10-26T01:36:00.110Z,12.40
2022-10-26T01:38:38.903Z,12.40
2022-10-26T01:41:15.591Z,12.40
2022-10-26T01:43:48.944Z,12.30
2022-10-26T01:46:17.225Z,12.20
2022-10-26T01:48:45.456Z,12.10
2022-10-26T01:51:13.474Z,12.10
2022-10-26T01:53:47.307Z,12.00
2022-10-26T01:56:39.039Z,11.90
2022-10-26T01:59:21.044Z,11.70
2022-10-26T02:02:12.901Z,11.70
2022-10-26T02:04:54.791Z,11.60
2022-10-26T02:07:36.871Z,11.60
2022-10-26T02:10:28.144Z,11.70
2022-10-26T02:12:57.800Z,11.70
2022-10-26T02:15:34.419Z,11.80
2022-10-26T02:18:40.818Z,11.70
2022-10-26T02:21:13.367Z,11.80
2022-10-26T02:23:42.706Z,11.80
2022-10-26T02:26:11.978Z,11.90
2022-10-26T02:28:45.163Z,11.90
2022-10-26T02:31:14.047Z,11.90
2022-10-26T02:33:46.235Z,11.90
2022-10-26T02:36:17.361Z,11.80
2022-10-26T02:38:46.833Z,11.80
2022-10-26T02:41:15.548Z,11.90
2022-10-26T02:43:51.070Z,11.80
2022-10-26T02:46:22.931Z,11.80
2022-10-26T02:48:49.979Z,11.80
2022-10-26T02:51:44.064Z,11.90
2022-10-26T02:54:15.324Z,11.90
2022-10-26T02:57:01.888Z,11.90
2022-10-26T02:59:34.376Z,11.90
2022-10-26T03:02:01.919Z,11.90
2022-10-26T03:04:30.815Z,11.80
2022-10-26T03:06:58.032Z,11.80
2022-10-26T03:09:25.746Z,11.90
2022-10-26T03:11:53.385Z,11.90
2022-10-26T03:14:20.833Z,12.00
2022-10-26T03:16:47.786Z,12.00
2022-10-26T03:19:14.688Z,12.00
2022-10-26T03:21:42.502Z,12.10
2022-10-26T03:24:10.234Z,12.00
2022-10-26T03:26:37.261Z,12.00
2022-10-26T03:29:04.301Z,12.00
2022-10-26T03:31:31.220Z,12.00
2022-10-26T03:33:58.096Z,12.00
2022-10-26T03:36:24.994Z,12.00
2022-10-26T03:38:51.869Z,12.00
2022-10-26T03:41:18.750Z,11.90
2022-10-26T03:43:45.643Z,12.00
2022-10-26T03:46:12.547Z,11.90
2022-10-26T03:48:39.485Z,11.80
2022-10-26T03:51:06.466Z,11.70
2022-10-26T03:53:33.394Z,11.60
2022-10-26T03:56:00.274Z,11.60
2022-10-26T03:58:27.229Z,11.70
2022-10-26T04:00:54.223Z,11.70
2022-10-26T04:03:21.114Z,11.80
2022-10-26T04:05:48.026Z,11.90
2022-10-26T04:08:15.068Z,11.90
2022-10-26T04:10:41.934Z,11.90
2022-10-26T04:13:11.316Z,11.80
2022-10-26T04:15:38.516Z,11.80
2022-10-26T04:18:05.502Z,11.80
2022-10-26T04:20:35.147Z,11.80
2022-10-26T04:23:04.464Z,11.80
2022-10-26T04:25:33.646Z,11.80
2022-10-26T04:28:02.293Z,11.90
2022-10-26T04:30:29.467Z,11.90
2022-10-26T04:32:56.551Z,12.00
2022-10-26T04:35:23.765Z,12.10
2022-10-26T04:37:50.686Z,12.00
2022-10-26T04:40:17.660Z,12.10
2022-10-26T04:42:48.546Z,12.00
2022-10-26T04:45:16.438Z,12.10
2022-10-26T04:47:43.817Z,12.00
2022-10-26T04:50:12.584Z,11.90
2022-10-26T04:52:39.942Z,11.80
2022-10-26T04:55:08.018Z,11.70
2022-10-26T04:57:35.681Z,11.70
2022-10-26T05:00:04.588Z,11.60
2022-10-26T05:02:31.574Z,11.50
2022-10-26T05:04:58.558Z,11.50
2022-10-26T05:07:25.557Z,11.40
2022-10-26T05:09:52.520Z,11.40
2022-10-26T05:12:19.534Z,11.30
2022-10-26T05:14:46.430Z,11.30
2022-10-26T05:17:13.359Z,11.30
2022-10-26T05:19:40.303Z,11.40
2022-10-26T05:22:07.464Z,11.50
2022-10-26T05:24:34.582Z,11.40
2022-10-26T05:27:01.518Z,11.40
2022-10-26T05:29:28.535Z,11.40
2022-10-26T05:31:55.478Z,11.40
2022-10-26T05:34:22.430Z,11.40
2022-10-26T05:36:49.306Z,11.20
2022-10-26T05:39:16.232Z,11.20
2022-10-26T05:41:43.194Z,11.10
2022-10-26T05:44:10.184Z,11.10
2022-10-26T05:46:37.092Z,10.90
2022-10-26T05:49:04.126Z,10.90
2022-10-26T05:51:33.771Z,10.80
2022-10-26T05:54:00.705Z,10.90
2022-10-26T05:56:37.253Z,10.80
2022-10-26T05:59:10.504Z,10.80
2022-10-26T06:01:46.502Z,10.80
2022-10-26T06:04:31.359Z,10.70
2022-10-26T06:06:58.835Z,10.90
2022-10-26T06:09:26.084Z,11.50
2022-10-26T06:11:53.244Z,11.20
2022-10-26T06:14:20.512Z,11.10
2022-10-26T06:17:08.693Z,11.00
2022-10-26T06:19:47.635Z,11.00
2022-10-26T06:22:32.604Z,11.00
2022-10-26T06:25:16.711Z,11.00
2022-10-26T06:27:55.277Z,11.00
2022-10-26T06:30:23.568Z,10.90
2022-10-26T06:33:01.281Z,10.90
2022-10-26T06:35:41.335Z,11.00
2022-10-26T06:41:50.399Z,10.90
2022-10-26T06:44:23.729Z,10.90
2022-10-26T06:47:10.320Z,10.90
2022-10-26T06:49:42.971Z,10.90
2022-10-26T06:52:35.472Z,11.00
2022-10-26T06:55:02.885Z,11.10
2022-10-26T06:57:34.873Z,11.20
2022-10-26T07:00:18.945Z,11.20
2022-10-26T07:02:46.398Z,11.30
2022-10-26T07:05:13.463Z,11.30
2022-10-26T07:07:48.201Z,11.40
2022-10-26T07:13:56.502Z,11.60
2022-10-26T07:16:23.613Z,11.80
2022-10-26T07:18:50.588Z,11.80
2022-10-26T07:21:17.503Z,11.80
2022-10-26T07:23:44.440Z,12.00
2022-10-26T07:29:52.174Z,12.10
2022-10-26T07:32:19.114Z,12.20
2022-10-26T07:34:46.001Z,12.30
2022-10-26T07:37:12.920Z,12.40
2022-10-26T07:39:39.794Z,12.50
2022-10-26T07:42:06.758Z,12.50
2022-10-26T07:44:33.679Z,12.50
2022-10-26T07:47:00.864Z,12.50
2022-10-26T07:49:28.066Z,12.60
2022-10-26T07:51:55.071Z,12.60
2022-10-26T07:54:21.990Z,12.70
2022-10-26T07:56:52.114Z,12.80
2022-10-26T07:59:19.116Z,12.90
2022-10-26T08:01:46.403Z,13.00
2022-10-26T08:04:13.455Z,13.00
2022-10-26T08:06:40.379Z,13.10
2022-10-26T08:09:07.329Z,13.00
2022-10-26T08:11:37.085Z,13.10
2022-10-26T08:14:04.826Z,13.20
2022-10-26T08:16:32.103Z,13.30
2022-10-26T08:18:59.041Z,13.50
2022-10-26T08:21:39.254Z,13.70
2022-10-26T08:24:07.503Z,13.90
2022-10-26T08:26:34.559Z,14.00
2022-10-26T08:29:01.518Z,14.20
2022-10-26T08:31:28.472Z,14.30
2022-10-26T08:33:55.355Z,14.30
2022-10-26T08:36:26.728Z,14.20
2022-10-26T08:38:53.942Z,14.40
2022-10-26T08:41:42.171Z,14.00
2022-10-26T08:44:27.901Z,13.90
2022-10-26T08:50:52.773Z,13.60
2022-10-26T08:53:25.519Z,13.70
2022-10-26T08:59:58.165Z,13.90
2022-10-26T09:02:25.254Z,13.90
2022-10-26T09:04:53.434Z,14.00
2022-10-26T09:07:43.847Z,14.10
2022-10-26T09:10:40.903Z,14.40
2022-10-26T09:13:26.581Z,14.80
2022-10-26T09:16:12.225Z,14.90
2022-10-26T09:19:03.377Z,14.90
2022-10-26T09:21:38.493Z,14.90
2022-10-26T09:24:14.479Z,15.00
2022-10-26T09:27:19.630Z,15.10
2022-10-26T09:29:47.772Z,15.10
2022-10-26T09:32:35.211Z,14.90
2022-10-26T09:35:20.551Z,14.80
2022-10-26T09:38:03.665Z,14.80
2022-10-26T09:40:34.385Z,14.80
2022-10-26T09:43:05.703Z,15.00
2022-10-26T09:45:39.288Z,15.00
2022-10-26T09:48:19.014Z,15.20
2022-10-26T09:50:49.756Z,15.40
2022-10-26T09:53:16.760Z,15.70
2022-10-26T09:55:46.829Z,15.70
2022-10-26T09:58:24.383Z,15.20
2022-10-26T10:00:52.333Z,15.10
2022-10-26T10:03:25.427Z,15.00
2022-10-26T10:05:53.261Z,15.10
2022-10-26T10:08:25.899Z,15.30
2022-10-26T10:11:00.252Z,15.60
2022-10-26T10:13:30.682Z,15.80
2022-10-26T10:16:21.128Z,15.80
2022-10-26T10:18:59.331Z,15.90
2022-10-26T10:21:39.625Z,16.20
2022-10-26T10:24:27.638Z,16.10
2022-10-26T10:27:06.083Z,16.00
2022-10-26T10:29:39.740Z,16.10
2022-10-26T10:35:53.831Z,16.00
2022-10-26T10:38:22.064Z,16.00
2022-10-26T10:41:00.279Z,15.90
2022-10-26T10:43:27.659Z,15.70
2022-10-26T10:45:59.736Z,15.70
2022-10-26T10:48:29.480Z,15.50
2022-10-26T10:51:02.009Z,15.50
2022-10-26T10:53:46.176Z,15.60
2022-10-26T10:56:49.045Z,15.70
2022-10-26T10:59:53.088Z,15.80
2022-10-26T11:02:34.938Z,15.90
2022-10-26T11:05:07.951Z,15.80
2022-10-26T11:07:46.885Z,15.50
2022-10-26T11:10:17.910Z,15.60
2022-10-26T11:12:53.175Z,15.70
2022-10-26T11:15:26.403Z,15.80
2022-10-26T11:18:00.576Z,15.70
2022-10-26T11:20:29.157Z,15.80
2022-10-26T11:23:09.782Z,15.80
2022-10-26T11:26:12.007Z,15.70
2022-10-26T11:29:06.058Z,15.50
2022-10-26T11:31:41.719Z,15.30
2022-10-26T11:34:11.359Z,15.20
2022-10-26T11:36:41.819Z,15.10
2022-10-26T11:39:34.114Z,14.90
2022-10-26T11:42:16.183Z,14.90
2022-10-26T11:44:53.067Z,15.00
2022-10-26T11:47:39.833Z,14.90
2022-10-26T11:50:17.109Z,15.00
2022-10-26T11:53:02.540Z,15.30
2022-10-26T11:55:30.987Z,15.40
2022-10-26T11:57:58.802Z,15.30
2022-10-26T12:00:27.085Z,15.20
2022-10-26T12:03:12.175Z,14.90
2022-10-26T12:05:45.057Z,15.00
2022-10-26T12:08:24.305Z,15.10
2022-10-26T12:13:39.466Z,15.20
2022-10-26T12:16:25.699Z,15.30
2022-10-26T12:19:04.764Z,15.30
2022-10-26T12:21:33.438Z,15.20
2022-10-26T12:24:33.581Z,15.20
2022-10-26T12:27:06.230Z,15.30
2022-10-26T12:29:47.666Z,15.30
2022-10-26T12:32:32.602Z,15.30
2022-10-26T12:35:03.763Z,15.00
2022-10-26T12:37:37.647Z,15.00
2022-10-26T12:40:30.655Z,14.80
2022-10-26T12:42:58.763Z,14.70
2022-10-26T12:45:25.678Z,14.60
2022-10-26T12:47:52.655Z,14.60
2022-10-26T12:50:25.954Z,14.70
2022-10-26T12:52:55.951Z,14.80
2022-10-26T12:55:32.098Z,14.90
2022-10-26T12:58:17.442Z,14.90
2022-10-26T13:01:07.378Z,14.90
2022-10-26T13:03:34.290Z,14.70
2022-10-26T13:06:45.984Z,14.60
2022-10-26T13:09:33.278Z,14.50
2022-10-26T13:12:03.372Z,14.30
2022-10-26T13:14:37.392Z,14.30
2022-10-26T13:17:07.176Z,14.20
2022-10-26T13:19:42.734Z,14.20
2022-10-26T13:22:16.848Z,14.20
2022-10-26T13:24:52.423Z,14.20
2022-10-26T13:27:19.310Z,14.20
2022-10-26T13:30:04.373Z,14.30
2022-10-26T13:32:54.682Z,14.30
2022-10-26T13:35:24.190Z,14.40
2022-10-26T13:37:55.106Z,14.40
2022-10-26T13:40:25.402Z,14.40
2022-10-26T13:42:58.248Z,14.30
2022-10-26T13:45:34.376Z,14.20
2022-10-26T13:51:51.660Z,14.30
2022-10-26T13:54:34.966Z,14.20
2022-10-26T13:57:29.443Z,14.20
2022-10-26T14:00:03.028Z,14.20
2022-10-26T14:02:31.153Z,14.30
2022-10-26T14:05:04.161Z,14.30
2022-10-26T14:07:54.207Z,14.30
2022-10-26T14:10:43.219Z,14.40
2022-10-26T14:13:15.529Z,14.40
2022-10-26T14:15:46.742Z,14.50
2022-10-26T14:18:25.131Z,14.40
2022-10-26T14:21:33.401Z,14.30
2022-10-26T14:24:04.291Z,14.20
2022-10-26T14:26:41.618Z,14.10
2022-10-26T14:29:20.779Z,14.10
2022-10-26T14:31:50.079Z,14.10
2022-10-26T14:34:18.457Z,14.10
2022-10-26T14:36:59.481Z,14.00
2022-10-26T14:39:40.978Z,14.00
2022-10-26T14:42:34.665Z,14.00
2022-10-26T14:45:02.501Z,13.90
2022-10-26T14:47:32.812Z,13.80
2022-10-26T14:52:35.868Z,13.80
2022-10-26T14:55:15.271Z,13.70
2022-10-26T14:57:45.295Z,13.70
2022-10-26T15:00:20.130Z,13.70
2022-10-26T15:02:50.433Z,13.60
2022-10-26T15:05:17.608Z,13.60
2022-10-26T15:07:45.675Z,13.60
2022-10-26T15:10:37.400Z,13.50
2022-10-26T15:13:16.928Z,13.50
2022-10-26T15:15:47.034Z,13.50
2022-10-26T15:18:29.038Z,13.40
2022-10-26T15:20:57.336Z,13.40
2022-10-26T15:23:26.723Z,13.40
2022-10-26T15:25:58.577Z,13.40
2022-10-26T15:28:39.107Z,13.30
2022-10-26T15:31:10.469Z,13.30
2022-10-26T15:33:43.333Z,13.20
2022-10-26T15:36:22.304Z,13.20
2022-10-26T15:38:49.466Z,13.10
2022-10-26T15:41:24.185Z,13.00
2022-10-26T15:43:53.560Z,12.90
2022-10-26T15:46:21.413Z,12.80
2022-10-26T15:48:57.043Z,12.70
2022-10-26T15:51:24.515Z,12.60
2022-10-26T15:53:51.956Z,12.50
2022-10-26T15:56:24.925Z,12.30
2022-10-26T15:58:52.269Z,12.20
2022-10-26T16:01:24.260Z,12.10
2022-10-26T16:03:52.144Z,12.00
2022-10-26T16:06:29.866Z,11.90
2022-10-26T16:09:00.478Z,11.80
2022-10-26T16:11:27.984Z,11.70
2022-10-26T16:13:57.086Z,11.50
2022-10-26T16:16:26.630Z,11.40
2022-10-26T16:19:06.031Z,11.40
2022-10-26T16:21:39.261Z,11.30
2022-10-26T16:24:06.394Z,11.40
2022-10-26T16:26:33.357Z,11.40
2022-10-26T16:29:00.590Z,11.40
2022-10-26T16:31:27.647Z,11.40
2022-10-26T16:33:54.580Z,11.40
2022-10-26T16:36:21.441Z,11.50
2022-10-26T16:38:48.699Z,11.60
2022-10-26T16:41:19.031Z,11.60
2022-10-26T16:43:49.199Z,11.60
2022-10-26T16:46:20.941Z,11.70
2022-10-26T16:48:49.787Z,11.70
2022-10-26T16:51:21.037Z,11.70
2022-10-26T16:53:49.529Z,11.70
2022-10-26T16:56:19.345Z,11.70
2022-10-26T16:58:46.695Z,11.80
2022-10-26T17:01:18.318Z,11.80
2022-10-26T17:03:50.541Z,11.80
2022-10-26T17:06:18.299Z,11.80
2022-10-26T17:08:45.365Z,11.80
2022-10-26T17:11:17.887Z,11.80
2022-10-26T17:13:45.270Z,11.80
2022-10-26T17:16:18.139Z,11.90
2022-10-26T17:18:46.003Z,11.90
2022-10-26T17:21:15.343Z,11.80
2022-10-26T17:23:42.406Z,11.80
2022-10-26T17:26:11.502Z,11.70
2022-10-26T17:28:38.901Z,11.60
2022-10-26T17:31:14.005Z,11.50
2022-10-26T17:33:43.267Z,11.30
2022-10-26T17:36:12.773Z,11.20
2022-10-26T17:38:41.727Z,11.00
2022-10-26T17:41:11.510Z,10.90
2022-10-26T17:43:39.636Z,10.80
2022-10-26T17:46:10.319Z,10.60
2022-10-26T17:48:37.659Z,10.50
2022-10-26T17:51:07.920Z,10.40
2022-10-26T17:53:34.762Z,10.40
2022-10-26T17:56:07.755Z,10.40
2022-10-26T17:58:35.635Z,10.50
2022-10-26T18:01:07.404Z,10.60
2022-10-26T18:03:35.076Z,10.50
2022-10-26T18:06:02.687Z,10.40
2022-10-26T18:08:33.123Z,10.40
2022-10-26T18:11:00.211Z,10.40
2022-10-26T18:13:34.129Z,10.30
2022-10-26T18:16:06.436Z,10.20
2022-10-26T18:18:33.877Z,10.40
2022-10-26T18:21:05.500Z,10.20
2022-10-26T18:23:32.412Z,10.10
2022-10-26T18:26:22.787Z,10.00
2022-10-26T18:28:50.030Z,9.90
2022-10-26T18:31:20.899Z,10.00
2022-10-26T18:33:48.174Z,9.90
2022-10-26T18:36:19.327Z,10.00
2022-10-26T18:38:49.538Z,10.30
2022-10-26T18:41:18.497Z,10.30
2022-10-26T18:43:49.539Z,10.50
2022-10-26T18:46:20.813Z,10.60
2022-10-26T18:48:48.791Z,10.60
2022-10-26T18:51:18.522Z,10.80
2022-10-26T18:53:46.791Z,10.80
2022-10-26T18:56:19.509Z,10.90
2022-10-26T18:58:49.124Z,10.90
2022-10-26T19:01:18.510Z,10.80
2022-10-26T19:03:47.347Z,10.90
2022-10-26T19:06:20.176Z,10.80
2022-10-26T19:08:47.703Z,10.80
2022-10-26T19:11:16.645Z,10.80
2022-10-26T19:13:43.735Z,10.80
2022-10-26T19:16:21.935Z,11.00
2022-10-26T19:19:01.004Z,10.90
2022-10-26T19:21:29.620Z,10.90
2022-10-26T19:23:59.247Z,11.00
2022-10-26T19:26:34.674Z,10.90
2022-10-26T19:29:06.183Z,10.80
2022-10-26T19:31:33.901Z,10.80
2022-10-26T19:34:01.661Z,10.80
2022-10-26T19:36:29.297Z,10.80
2022-10-26T19:38:56.568Z,10.80
2022-10-26T19:41:26.782Z,10.80
2022-10-26T19:43:57.349Z,10.90
2022-10-26T19:46:26.741Z,10.90
2022-10-26T19:48:59.178Z,10.80
2022-10-26T19:51:27.932Z,10.80
2022-10-26T19:53:57.862Z,10.80
2022-10-26T19:56:27.838Z,10.90
2022-10-26T19:58:55.852Z,10.90
2022-10-26T20:01:23.137Z,10.90
2022-10-26T20:03:50.141Z,10.90
2022-10-26T20:06:18.434Z,10.80
2022-10-26T20:08:47.439Z,10.80
2022-10-26T20:11:16.791Z,10.80
2022-10-26T20:13:45.545Z,10.70
2022-10-26T20:16:13.574Z,10.70
2022-10-26T20:18:44.076Z,10.70
2022-10-26T20:21:15.574Z,10.70
2022-10-26T20:23:43.064Z,10.60
2022-10-26T20:26:11.839Z,10.70
2022-10-26T20:28:48.130Z,10.60
2022-10-26T20:31:15.026Z,10.60
2022-10-26T20:33:41.922Z,10.60
2022-10-26T20:36:09.005Z,10.50
2022-10-26T20:38:36.479Z,10.60
2022-10-26T20:41:06.380Z,10.50
2022-10-26T20:43:39.791Z,10.50
2022-10-26T20:46:26.712Z,10.60
2022-10-26T20:48:54.616Z,10.50
2022-10-26T20:51:38.542Z,10.60
2022-10-26T20:54:38.831Z,10.60
2022-10-26T20:57:12.922Z,10.70
2022-10-26T20:59:53.335Z,10.70
2022-10-26T21:02:22.650Z,10.60
2022-10-26T21:04:49.694Z,10.60
2022-10-26T21:07:16.593Z,10.50
2022-10-26T21:09:43.613Z,10.50
2022-10-26T21:12:11.125Z,10.40
2022-10-26T21:14:40.957Z,10.30
2022-10-26T21:17:08.867Z,10.20
2022-10-26T21:19:36.457Z,10.10
2022-10-26T21:22:03.869Z,10.00
2022-10-26T21:24:30.816Z,10.00
2022-10-26T21:26:57.795Z,9.90
2022-10-26T21:29:24.779Z,9.90
2022-10-26T21:31:51.670Z,9.80
2022-10-26T21:34:18.609Z,9.80
2022-10-26T21:36:45.501Z,9.70
2022-10-26T21:39:12.437Z,9.80
2022-10-26T21:41:39.417Z,9.90
2022-10-26T21:44:09.260Z,9.90
2022-10-26T21:46:42.573Z,9.90
2022-10-26T21:49:09.458Z,9.80
2022-10-26T21:51:36.407Z,9.90
2022-10-26T21:57:56.877Z,9.80
2022-10-26T22:00:23.940Z,9.80
2022-10-26T22:02:51.150Z,9.80
2022-10-26T22:05:18.307Z,9.80
2022-10-26T22:07:45.217Z,9.80
2022-10-26T22:10:12.180Z,9.80
2022-10-26T22:12:39.111Z,9.80
2022-10-26T22:15:06.890Z,9.80
2022-10-26T22:17:38.496Z,9.80
2022-10-26T22:20:07.491Z,9.80
2022-10-26T22:22:34.501Z,9.80
2022-10-26T22:25:01.485Z,9.80
2022-10-26T22:27:29.361Z,9.80
2022-10-26T22:29:56.327Z,9.80
2022-10-26T22:32:23.481Z,9.80
2022-10-26T22:34:50.776Z,9.80
2022-10-26T22:37:27.130Z,9.90
2022-10-26T22:39:54.029Z,9.90
2022-10-26T22:42:21.185Z,9.90
2022-10-26T22:44:48.088Z,9.80
2022-10-26T22:47:15.044Z,9.80
2022-10-26T22:49:41.975Z,9.70
2022-10-26T22:52:08.975Z,9.80
2022-10-26T22:54:35.904Z,9.80
2022-10-26T22:57:02.813Z,9.80
2022-10-26T22:59:29.691Z,9.70
2022-10-26T23:01:56.745Z,9.80
2022-10-26T23:04:23.725Z,9.80
2022-10-26T23:06:50.630Z,9.80
2022-10-26T23:09:17.640Z,9.80
2022-10-26T23:11:44.527Z,9.90
2022-10-26T23:14:11.479Z,9.80
2022-10-26T23:16:38.384Z,9.90
2022-10-26T23:19:05.291Z,10.00
2022-10-26T23:21:32.307Z,9.90
2022-10-26T23:23:59.264Z,9.90
2022-10-26T23:26:26.296Z,10.00
2022-10-26T23:28:53.223Z,10.00
2022-10-26T23:31:25.993Z,10.00
2022-10-26T23:33:54.714Z,10.00
2022-10-26T23:36:22.273Z,10.00
2022-10-26T23:38:49.301Z,10.10
2022-10-26T23:41:16.232Z,10.10
2022-10-26T23:43:43.224Z,10.20
2022-10-26T23:46:10.450Z,10.10
2022-10-26T23:48:37.561Z,10.20
2022-10-26T23:51:04.535Z,10.20
2022-10-26T23:53:31.818Z,10.20
2022-10-26T23:55:58.707Z,10.20
2022-10-26T23:58:25.572Z,10.20
